Time;durP1;ratioP1;P1;durP2;ratioP2;P2;SDS_P1;SDS_P2;PMS_P1;PMS_P2;Temp;Humidity;BMP_temperature;BMP_pressure;BME280_temperature;BME280_humidity;BME280_pressure;Samples;Min_cycle;Max_cycle;Signal;HPM_P1;HPM_P2
2021/01/07 00:00:40;;;;;;;;;;;;;;;;;;5117114;28;20009;-50
2021/01/07 00:03:06;;;;;;;;;;;;;;;;;;5117367;28;19934;-48
2021/01/07 00:05:32;;;;;;;;;;;;;;;;;;5117362;28;20344;-48
2021/01/07 00:07:58;;;;;;;;;;;;;;;;;;5117069;28;19919;-47
2021/01/07 00:10:24;;;;;;;;;;;;;;;;;;5117297;28;19924;-49
2021/01/07 00:12:50;;;;;;;;;;;;;;;;;;5116887;28;19953;-47
2021/01/07 00:15:16;;;;;;;;;;;;;;;;;;5116728;28;19962;-47
2021/01/07 00:17:42;;;;;;;;;;;;;;;;;;5117054;28;19923;-47
2021/01/07 00:20:08;;;;;;;;;;;;;;;;;;5116949;28;20402;-51
2021/01/07 00:22:34;;;;;;;;;;;;;;;;;;5117001;28;19946;-46
2021/01/07 00:25:00;;;;;;;;;;;;;;;;;;5117159;28;19940;-47
2021/01/07 00:27:26;;;;;;;;;;;;;;;;;;5116864;28;20291;-48
2021/01/07 00:29:52;;;;;;;;;;;;;;;;;;5116655;28;19934;-48
2021/01/07 00:32:18;;;;;;;;;;;;;;;;;;5116788;28;19986;-50
2021/01/07 00:34:43;;;;;;;;;;;;;;;;;;5116851;28;19908;-49
2021/01/07 00:37:09;;;;;;;;;;;;;;;;;;5116433;28;20346;-47
2021/01/07 00:39:35;;;;;;;;;;;;;;;;;;5116438;28;19922;-47
2021/01/07 00:42:01;;;;;;;;;;;;;;;;;;5115969;28;19946;-47
2021/01/07 00:44:27;;;;;;;;;;;;;;;;;;5116282;28;19922;-52
2021/01/07 00:46:53;;;;;;;;;;;;;;;;;;5116680;28;19908;-48
2021/01/07 00:49:19;;;;;;;;;;;;;;;;;;5116249;28;19908;-51
2021/01/07 00:51:45;;;;;;;;;;;;;;;;;;5116238;28;19923;-49
2021/01/07 00:54:11;;;;;;;;;;;;;;;;;;5116065;28;19952;-47
2021/01/07 00:56:37;;;;;;;;;;;;;;;;;;5116168;28;20381;-47
2021/01/07 00:59:03;;;;;;;;;;;;;;;;;;5115960;28;19968;-51
2021/01/07 01:01:29;;;;;;;;;;;;;;;;;;5116037;28;20015;-50
2021/01/07 01:03:55;;;;;;;;;;;;;;;;;;5115830;28;20421;-47
2021/01/07 01:06:21;;;;;;;;;;;;;;;;;;5115901;28;19922;-46
2021/01/07 01:08:47;;;;;;;;;;;;;;;;;;5115726;28;19966;-50
2021/01/07 01:11:13;;;;;;;;;;;;;;;;;;5115827;28;19922;-48
2021/01/07 01:13:40;;;;;;;;;;;;;;;;;;5115918;28;19916;-52
2021/01/07 01:16:06;;;;;;;;;;;;;;;;;;5115467;28;19998;-52
2021/01/07 01:18:32;;;;;;;;;;;;;;;;;;5115560;28;19948;-51
2021/01/07 01:20:57;;;;;;;;;;;;;;;;;;5115578;28;19929;-50
2021/01/07 01:23:23;;;;;;;;;;;;;;;;;;5115406;28;19915;-48
2021/01/07 01:25:49;;;;;;;;;;;;;;;;;;5115783;28;20089;-48
2021/01/07 01:28:15;;;;;;;;;;;;;;;;;;5115592;28;19952;-54
2021/01/07 01:30:41;;;;;;;;;;;;;;;;;;5115426;28;19948;-52
2021/01/07 01:33:07;;;;;;;;;;;;;;;;;;5115292;28;19946;-49
2021/01/07 01:35:33;;;;;;;;;;;;;;;;;;5115636;28;19924;-52
2021/01/07 01:37:59;;;;;;;;;;;;;;;;;;5115251;28;19928;-54
2021/01/07 01:40:25;;;;;;;;;;;;;;;;;;5115535;28;19922;-49
2021/01/07 01:42:51;;;;;;;;;;;;;;;;;;5115241;28;19981;-54
2021/01/07 01:45:17;;;;;;;;;;;;;;;;;;5115008;28;20284;-51
2021/01/07 01:47:43;;;;;;;;;;;;;;;;;;5115416;28;19928;-52
2021/01/07 01:50:09;;;;;;;;;;;;;;;;;;5115037;28;19955;-50
2021/01/07 01:52:35;;;;;;;;;;;;;;;;;;5114901;28;19948;-52
2021/01/07 01:55:01;;;;;;;;;;;;;;;;;;5114086;28;19922;-49
2021/01/07 01:57:27;;;;;;;;;;;;;;;;;;5114902;28;19929;-50
2021/01/07 01:59:53;;;;;;;;;;;;;;;;;;5114840;28;19945;-52
2021/01/07 02:02:19;;;;;;;;;;;;;;;;;;5114904;28;19924;-53
2021/01/07 02:04:45;;;;;;;;;;;;;;;;;;5114961;28;19938;-50
2021/01/07 02:07:11;;;;;;;;;;;;;;;;;;5114704;28;20394;-54
2021/01/07 02:09:37;;;;;;;;;;;;;;;;;;5114794;28;19907;-53
2021/01/07 02:12:03;;;;;;;;;;;;;;;;;;5114672;28;20303;-50
2021/01/07 02:14:29;;;;;;;;;;;;;;;;;;5114860;28;19961;-48
2021/01/07 02:16:55;;;;;;;;;;;;;;;;;;5114526;28;19999;-50
2021/01/07 02:19:21;;;;;;;;;;;;;;;;;;5114500;28;19926;-54
2021/01/07 02:21:47;;;;;;;;;;;;;;;;;;5114618;28;19931;-53
2021/01/07 02:24:13;;;;;;;;;;;;;;;;;;5114750;28;20454;-53
2021/01/07 02:26:38;;;;;;;;;;;;;;;;;;5114483;28;19945;-47
2021/01/07 02:29:04;;;;;;;;;;;;;;;;;;5114436;28;19908;-50
2021/01/07 02:31:30;;;;;;;;;;;;;;;;;;5114371;28;20412;-55
2021/01/07 02:33:56;;;;;;;;;;;;;;;;;;5114576;28;19947;-54
2021/01/07 02:36:22;;;;;;;;;;;;;;;;;;5114271;28;20108;-54
2021/01/07 02:38:49;;;;;;;;;;;;;;;;;;5114244;28;19931;-49
2021/01/07 02:41:15;;;;;;;;;;;;;;;;;;5114209;28;20023;-54
2021/01/07 02:43:41;;;;;;;;;;;;;;;;;;5114352;28;19959;-48
2021/01/07 02:46:07;;;;;;;;;;;;;;;;;;5114243;28;19908;-48
2021/01/07 02:48:33;;;;;;;;;;;;;;;;;;5114510;28;20396;-52
2021/01/07 02:50:59;;;;;;;;;;;;;;;;;;5114077;28;19927;-54
2021/01/07 02:53:25;;;;;;;;;;;;;;;;;;5114103;28;20037;-53
2021/01/07 02:55:51;;;;;;;;;;;;;;;;;;5114056;28;19931;-54
2021/01/07 02:58:17;;;;;;;;;;;;;;;;;;5114498;28;19933;-47
2021/01/07 03:00:43;;;;;;;;;;;;;;;;;;5114023;28;20344;-47
2021/01/07 03:03:09;;;;;;;;;;;;;;;;;;5112842;28;19929;-53
2021/01/07 03:05:35;;;;;;;;;;;;;;;;;;5116106;28;20023;-53
2021/01/07 03:08:01;;;;;;;;;;;;;;;;;;5118502;28;19956;-49
2021/01/07 03:10:27;;;;;;;;;;;;;;;;;;5118246;28;20410;-48
2021/01/07 03:12:53;;;;;;;;;;;;;;;;;;5118021;28;19946;-51
2021/01/07 03:15:19;;;;;;;;;;;;;;;;;;5118107;28;19962;-54
2021/01/07 03:17:48;;;;;;;;;;;;;;;;;;5118085;28;19923;-51
2021/01/07 03:20:14;;;;;;;;;;;;;;;;;;5118306;28;20075;-49
2021/01/07 03:22:40;;;;;;;;;;;;;;;;;;5117776;28;19974;-53
2021/01/07 03:25:06;;;;;;;;;;;;;;;;;;5117850;28;19926;-55
2021/01/07 03:27:32;;;;;;;;;;;;;;;;;;5118168;28;19908;-53
2021/01/07 03:29:58;;;;;;;;;;;;;;;;;;5117749;28;20367;-51
2021/01/07 03:32:24;;;;;;;;;;;;;;;;;;5117677;28;19915;-54
2021/01/07 03:34:50;;;;;;;;;;;;;;;;;;5117762;28;19935;-50
2021/01/07 03:37:16;;;;;;;;;;;;;;;;;;5117831;28;19915;-52
2021/01/07 03:39:42;;;;;;;;;;;;;;;;;;5117622;28;20357;-52
2021/01/07 03:42:08;;;;;;;;;;;;;;;;;;5117433;28;19975;-50
2021/01/07 03:44:34;;;;;;;;;;;;;;;;;;5117836;28;20018;-54
2021/01/07 03:47:00;;;;;;;;;;;;;;;;;;5117395;28;20380;-53
2021/01/07 03:49:26;;;;;;;;;;;;;;;;;;5117402;28;19952;-54
2021/01/07 03:51:52;;;;;;;;;;;;;;;;;;5117662;28;19958;-54
2021/01/07 03:54:18;;;;;;;;;;;;;;;;;;5117189;28;19948;-51
2021/01/07 03:56:44;;;;;;;;;;;;;;;;;;5117237;28;19928;-54
2021/01/07 03:59:10;;;;;;;;;;;;;;;;;;5117149;28;20017;-54
2021/01/07 04:01:36;;;;;;;;;;;;;;;;;;5117401;28;19932;-51
2021/01/07 04:04:02;;;;;;;;;;;;;;;;;;5117568;28;19919;-51
2021/01/07 04:06:28;;;;;;;;;;;;;;;;;;5117056;28;20294;-53
2021/01/07 04:08:54;;;;;;;;;;;;;;;;;;5117054;28;19926;-52
2021/01/07 04:11:20;;;;;;;;;;;;;;;;;;5117249;28;19908;-49
2021/01/07 04:13:46;;;;;;;;;;;;;;;;;;5116861;28;19948;-49
2021/01/07 04:16:12;;;;;;;;;;;;;;;;;;5116283;28;19972;-54
2021/01/07 04:18:38;;;;;;;;;;;;;;;;;;5116698;28;19963;-54
2021/01/07 04:21:04;;;;;;;;;;;;;;;;;;5116800;28;19924;-53
2021/01/07 04:23:29;;;;;;;;;;;;;;;;;;5116929;28;19938;-48
2021/01/07 04:25:55;;;;;;;;;;;;;;;;;;5116636;28;19990;-52
2021/01/07 04:28:21;;;;;;;;;;;;;;;;;;5116676;28;19922;-49
2021/01/07 04:30:47;;;;;;;;;;;;;;;;;;5116661;28;20365;-49
2021/01/07 04:33:13;;;;;;;;;;;;;;;;;;5116758;28;19995;-47
2021/01/07 04:35:39;;;;;;;;;;;;;;;;;;5117083;28;19967;-49
2021/01/07 04:38:05;;;;;;;;;;;;;;;;;;5116403;28;20009;-49
2021/01/07 04:40:31;;;;;;;;;;;;;;;;;;5116983;28;19954;-48
2021/01/07 04:42:57;;;;;;;;;;;;;;;;;;5116393;28;19935;-45
2021/01/07 04:45:23;;;;;;;;;;;;;;;;;;5116347;28;19922;-50
2021/01/07 04:47:49;;;;;;;;;;;;;;;;;;5116614;28;19926;-54
2021/01/07 04:50:15;;;;;;;;;;;;;;;;;;5116199;28;20427;-54
2021/01/07 04:52:41;;;;;;;;;;;;;;;;;;5116271;28;19942;-54
2021/01/07 04:55:07;;;;;;;;;;;;;;;;;;5116289;28;19920;-53
2021/01/07 04:57:33;;;;;;;;;;;;;;;;;;5116322;28;20368;-53
2021/01/07 04:59:59;;;;;;;;;;;;;;;;;;5116112;28;19985;-51
2021/01/07 05:02:25;;;;;;;;;;;;;;;;;;5115921;28;19953;-52
2021/01/07 05:04:51;;;;;;;;;;;;;;;;;;5116055;28;20077;-54
2021/01/07 05:07:17;;;;;;;;;;;;;;;;;;5115974;28;20254;-54
2021/01/07 05:09:43;;;;;;;;;;;;;;;;;;5115857;28;19934;-52
2021/01/07 05:12:09;;;;;;;;;;;;;;;;;;5115851;28;19919;-54
2021/01/07 05:14:35;;;;;;;;;;;;;;;;;;5115729;28;20297;-54
2021/01/07 05:17:01;;;;;;;;;;;;;;;;;;5115541;28;19927;-53
2021/01/07 05:19:27;;;;;;;;;;;;;;;;;;5116212;28;20452;-53
2021/01/07 05:21:53;;;;;;;;;;;;;;;;;;5115582;28;19931;-52
2021/01/07 05:24:21;;;;;;;;;;;;;;;;;;5115852;28;19977;-54
2021/01/07 05:26:47;;;;;;;;;;;;;;;;;;5115474;28;19924;-52
2021/01/07 05:29:13;;;;;;;;;;;;;;;;;;5115767;28;19925;-53
2021/01/07 05:31:39;;;;;;;;;;;;;;;;;;5115518;28;19931;-51
2021/01/07 05:34:05;;;;;;;;;;;;;;;;;;5115383;28;20034;-53
2021/01/07 05:36:31;;;;;;;;;;;;;;;;;;5115409;28;20344;-47
2021/01/07 05:38:57;;;;;;;;;;;;;;;;;;5115611;28;19915;-51
2021/01/07 05:41:23;;;;;;;;;;;;;;;;;;5115388;28;20296;-52
2021/01/07 05:43:49;;;;;;;;;;;;;;;;;;5115149;28;19924;-53
2021/01/07 05:46:15;;;;;;;;;;;;;;;;;;5115490;28;19922;-54
2021/01/07 05:48:41;;;;;;;;;;;;;;;;;;5115165;28;19924;-54
2021/01/07 05:51:07;;;;;;;;;;;;;;;;;;5115084;28;20283;-53
2021/01/07 05:53:33;;;;;;;;;;;;;;;;;;5115185;28;19958;-49
2021/01/07 05:55:59;;;;;;;;;;;;;;;;;;5115018;28;20382;-49
2021/01/07 05:58:25;;;;;;;;;;;;;;;;;;5115173;28;19927;-52
2021/01/07 06:00:51;;;;;;;;;;;;;;;;;;5114983;28;20007;-47
2021/01/07 06:03:17;;;;;;;;;;;;;;;;;;5114782;28;19954;-54
2021/01/07 06:05:43;;;;;;;;;;;;;;;;;;5115158;28;19928;-49
2021/01/07 06:08:09;;;;;;;;;;;;;;;;;;5115045;28;19931;-48
2021/01/07 06:10:35;;;;;;;;;;;;;;;;;;5114640;28;20334;-48
2021/01/07 06:13:00;;;;;;;;;;;;;;;;;;5114806;28;20003;-46
2021/01/07 06:15:26;;;;;;;;;;;;;;;;;;5114446;28;19960;-49
2021/01/07 06:17:52;;;;;;;;;;;;;;;;;;5114583;28;20014;-49
2021/01/07 06:20:18;;;;;;;;;;;;;;;;;;5114951;28;19931;-49
2021/01/07 06:22:44;;;;;;;;;;;;;;;;;;5114305;28;19953;-49
2021/01/07 06:25:11;;;;;;;;;;;;;;;;;;5114826;28;20007;-47
2021/01/07 06:27:36;;;;;;;;;;;;;;;;;;5114439;28;19929;-48
2021/01/07 06:30:02;;;;;;;;;;;;;;;;;;5114697;28;19922;-53
2021/01/07 06:32:29;;;;;;;;;;;;;;;;;;5114402;28;20015;-50
2021/01/07 06:34:55;;;;;;;;;;;;;;;;;;5114373;28;19922;-50
2021/01/07 06:37:21;;;;;;;;;;;;;;;;;;5114317;28;20351;-47
2021/01/07 06:39:47;;;;;;;;;;;;;;;;;;5113785;28;19915;-47
2021/01/07 06:42:13;;;;;;;;;;;;;;;;;;5112963;28;20014;-53
2021/01/07 06:44:39;;;;;;;;;;;;;;;;;;5106584;28;19927;-49
2021/01/07 06:47:05;;;;;;;;;;;;;;;;;;5114265;28;20348;-46
2021/01/07 06:49:31;;;;;;;;;;;;;;;;;;5104513;28;19930;-49
2021/01/07 06:51:57;;;;;;;;;;;;;;;;;;5093573;28;19946;-54
2021/01/07 06:54:23;;;;;;;;;;;;;;;;;;5093443;28;19952;-53
2021/01/07 06:56:49;;;;;;;;;;;;;;;;;;5093365;28;20020;-47
2021/01/07 06:59:15;;;;;;;;;;;;;;;;;;5093908;28;19931;-52
2021/01/07 07:01:40;;;;;;;;;;;;;;;;;;5093773;28;20384;-52
2021/01/07 07:04:06;;;;;;;;;;;;;;;;;;5093661;28;19924;-48
2021/01/07 07:06:32;;;;;;;;;;;;;;;;;;5094725;28;20057;-49
2021/01/07 07:08:58;;;;;;;;;;;;;;;;;;5090952;28;19951;-48
2021/01/07 07:11:24;;;;;;;;;;;;;;;;;;5087137;28;19922;-45
2021/01/07 07:13:50;;;;;;;;;;;;;;;;;;5097645;28;19980;-49
2021/01/07 07:16:16;;;;;;;;;;;;;;;;;;5113339;28;19984;-47
2021/01/07 07:18:42;;;;;;;;;;;;;;;;;;5113476;28;20290;-52
2021/01/07 07:21:08;;;;;;;;;;;;;;;;;;5113745;28;19923;-48
2021/01/07 07:23:34;;;;;;;;;;;;;;;;;;5113598;28;19943;-47
2021/01/07 07:26:00;;;;;;;;;;;;;;;;;;5108056;28;20311;-45
2021/01/07 07:28:26;;;;;;;;;;;;;;;;;;5102417;28;20451;-46
2021/01/07 07:30:52;;;;;;;;;;;;;;;;;;5105861;28;19932;-47
2021/01/07 07:33:18;;;;;;;;;;;;;;;;;;5103383;28;20024;-47
2021/01/07 07:35:44;;;;;;;;;;;;;;;;;;5114042;28;19922;-51
2021/01/07 07:38:10;;;;;;;;;;;;;;;;;;5094758;28;19977;-46
2021/01/07 07:40:36;;;;;;;;;;;;;;;;;;5104065;28;19928;-48
2021/01/07 07:43:02;;;;;;;;;;;;;;;;;;5113487;28;20406;-47
2021/01/07 07:45:28;;;;;;;;;;;;;;;;;;5113586;28;19922;-51
2021/01/07 07:47:54;;;;;;;;;;;;;;;;;;5113700;28;20432;-48
2021/01/07 07:50:29;;;;;;;;;;;;;;;;;;5113592;28;19932;-50
2021/01/07 07:52:55;;;;;;;;;;;;;;;;;;5108419;28;19953;-47
2021/01/07 07:55:21;;;;;;;;;;;;;;;;;;5096700;28;19908;-47
2021/01/07 07:57:47;;;;;;;;;;;;;;;;;;5097068;28;19961;-46
2021/01/07 08:00:13;;;;;;;;;;;;;;;;;;5096742;28;20394;-49
2021/01/07 08:02:39;;;;;;;;;;;;;;;;;;5096665;28;19920;-47
2021/01/07 08:05:05;;;;;;;;;;;;;;;;;;5096824;28;19924;-51
2021/01/07 08:07:31;;;;;;;;;;;;;;;;;;5096737;28;20422;-50
2021/01/07 08:09:57;;;;;;;;;;;;;;;;;;5109147;28;19927;-49
2021/01/07 08:12:23;;;;;;;;;;;;;;;;;;5106540;28;19919;-47
2021/01/07 08:14:49;;;;;;;;;;;;;;;;;;5106615;28;20077;-51
2021/01/07 08:17:15;;;;;;;;;;;;;;;;;;5117081;28;19926;-49
2021/01/07 08:19:43;;;;;;;;;;;;;;;;;;5116763;28;19931;-48
2021/01/07 08:22:09;;;;;;;;;;;;;;;;;;5117201;28;19928;-48
2021/01/07 08:24:35;;;;;;;;;;;;;;;;;;5116657;28;20306;-47
2021/01/07 08:27:01;;;;;;;;;;;;;;;;;;5117059;28;19975;-50
2021/01/07 08:29:27;;;;;;;;;;;;;;;;;;5107865;28;20366;-51
2021/01/07 08:31:53;;;;;;;;;;;;;;;;;;5095774;28;19949;-47
2021/01/07 08:34:19;;;;;;;;;;;;;;;;;;5096197;28;19916;-50
2021/01/07 08:36:45;;;;;;;;;;;;;;;;;;5096161;28;19946;-50
2021/01/07 08:39:11;;;;;;;;;;;;;;;;;;5096137;28;19912;-50
2021/01/07 08:41:37;;;;;;;;;;;;;;;;;;5093211;28;19941;-52
2021/01/07 08:44:03;;;;;;;;;;;;;;;;;;5075805;28;20359;-49
2021/01/07 08:46:29;;;;;;;;;;;;;;;;;;5079952;28;20285;-58
2021/01/07 08:48:55;;;;;;;;;;;;;;;;;;5082152;28;19948;-51
2021/01/07 08:51:21;;;;;;;;;;;;;;;;;;5095843;28;19929;-50
2021/01/07 08:53:47;;;;;;;;;;;;;;;;;;5096190;28;19948;-47
2021/01/07 08:56:13;;;;;;;;;;;;;;;;;;5096065;28;19923;-53
2021/01/07 08:58:39;;;;;;;;;;;;;;;;;;5095927;28;20286;-49
2021/01/07 09:01:05;;;;;;;;;;;;;;;;;;5095645;28;19908;-48
2021/01/07 09:03:31;;;;;;;;;;;;;;;;;;5095323;28;19928;-50
2021/01/07 09:05:57;;;;;;;;;;;;;;;;;;5095580;28;19963;-49
2021/01/07 09:08:23;;;;;;;;;;;;;;;;;;5095813;28;19924;-49
2021/01/07 09:10:49;;;;;;;;;;;;;;;;;;5095558;28;19927;-46
2021/01/07 09:13:15;;;;;;;;;;;;;;;;;;5095364;28;20007;-52
2021/01/07 09:15:41;;;;;;;;;;;;;;;;;;5095565;28;19924;-52
2021/01/07 09:18:07;;;;;;;;;;;;;;;;;;5095021;28;19924;-46
2021/01/07 09:20:33;;;;;;;;;;;;;;;;;;5081862;28;19977;-53
2021/01/07 09:22:59;;;;;;;;;;;;;;;;;;5093662;28;20049;-53
2021/01/07 09:25:25;;;;;;;;;;;;;;;;;;5115617;28;19977;-48
2021/01/07 09:27:51;;;;;;;;;;;;;;;;;;5115500;28;19928;-50
2021/01/07 09:30:17;;;;;;;;;;;;;;;;;;5115834;28;19907;-47
2021/01/07 09:32:43;;;;;;;;;;;;;;;;;;5110728;28;20415;-52
2021/01/07 09:35:09;;;;;;;;;;;;;;;;;;5080853;28;19923;-48
2021/01/07 09:37:35;;;;;;;;;;;;;;;;;;5082530;28;19923;-46
2021/01/07 09:40:01;;;;;;;;;;;;;;;;;;5074687;28;19981;-47
2021/01/07 09:42:29;;;;;;;;;;;;;;;;;;5074590;28;19928;-48
2021/01/07 09:44:55;;;;;;;;;;;;;;;;;;5074513;28;19928;-52
2021/01/07 09:47:21;;;;;;;;;;;;;;;;;;5074389;28;20309;-50
2021/01/07 09:49:47;;;;;;;;;;;;;;;;;;5074546;28;19922;-44
2021/01/07 09:52:13;;;;;;;;;;;;;;;;;;5074890;28;19922;-48
2021/01/07 09:54:39;;;;;;;;;;;;;;;;;;5074256;28;20360;-52
2021/01/07 09:57:05;;;;;;;;;;;;;;;;;;5074237;28;20395;-52
2021/01/07 09:59:31;;;;;;;;;;;;;;;;;;5074674;28;19913;-47
2021/01/07 10:01:56;;;;;;;;;;;;;;;;;;5074231;28;20395;-51
2021/01/07 10:04:22;;;;;;;;;;;;;;;;;;5074158;28;19932;-48
2021/01/07 10:06:48;;;;;;;;;;;;;;;;;;5074116;28;19929;-46
2021/01/07 10:09:14;;;;;;;;;;;;;;;;;;5074262;28;19992;-48
2021/01/07 10:11:40;;;;;;;;;;;;;;;;;;5074035;28;19913;-48
2021/01/07 10:14:06;;;;;;;;;;;;;;;;;;5073754;28;20412;-50
2021/01/07 10:16:32;;;;;;;;;;;;;;;;;;5073606;28;19925;-48
2021/01/07 10:18:58;;;;;;;;;;;;;;;;;;5074290;28;20019;-46
2021/01/07 10:21:24;;;;;;;;;;;;;;;;;;5074299;28;19969;-47
2021/01/07 10:23:50;;;;;;;;;;;;;;;;;;5074068;28;20366;-48
2021/01/07 10:26:17;;;;;;;;;;;;;;;;;;5073908;28;20035;-47
2021/01/07 10:28:45;;;;;;;;;;;;;;;;;;5073857;28;19909;-49
2021/01/07 10:31:11;;;;;;;;;;;;;;;;;;5073975;28;20360;-47
2021/01/07 10:33:37;;;;;;;;;;;;;;;;;;5073970;28;19949;-49
2021/01/07 10:36:05;;;;;;;;;;;;;;;;;;5073052;28;20240;-50
2021/01/07 10:38:31;;;;;;;;;;;;;;;;;;5073698;28;19931;-47
2021/01/07 10:40:56;;;;;;;;;;;;;;;;;;5079352;28;19958;-49
2021/01/07 10:43:23;;;;;;;;;;;;;;;;;;5113750;28;19935;-50
2021/01/07 10:45:48;;;;;;;;;;;;;;;;;;5114223;28;19925;-50
2021/01/07 10:48:14;;;;;;;;;;;;;;;;;;5108863;28;19934;-47
2021/01/07 10:50:41;;;;;;;;;;;;;;;;;;5107283;28;19967;-47
2021/01/07 10:53:07;;;;;;;;;;;;;;;;;;5101623;28;20411;-46
2021/01/07 10:55:33;;;;;;;;;;;;;;;;;;5097247;28;19922;-50
2021/01/07 10:57:59;;;;;;;;;;;;;;;;;;5096329;28;20273;-47
2021/01/07 11:00:25;;;;;;;;;;;;;;;;;;5087295;28;19929;-51
2021/01/07 11:02:51;;;;;;;;;;;;;;;;;;5092307;28;20323;-46
2021/01/07 11:05:17;;;;;;;;;;;;;;;;;;5088831;28;20056;-47
2021/01/07 11:07:43;;;;;;;;;;;;;;;;;;5095323;28;19939;-45
2021/01/07 11:10:09;;;;;;;;;;;;;;;;;;5099782;28;19931;-49
2021/01/07 11:12:35;;;;;;;;;;;;;;;;;;5098315;28;19968;-48
2021/01/07 11:15:01;;;;;;;;;;;;;;;;;;5091610;28;19922;-47
2021/01/07 11:17:27;;;;;;;;;;;;;;;;;;5084194;28;20267;-48
2021/01/07 11:19:53;;;;;;;;;;;;;;;;;;5086268;28;19953;-46
2021/01/07 11:22:19;;;;;;;;;;;;;;;;;;5094860;28;20296;-49
2021/01/07 11:24:45;;;;;;;;;;;;;;;;;;5084523;28;19936;-45
2021/01/07 11:27:11;;;;;;;;;;;;;;;;;;5087795;28;19980;-46
2021/01/07 11:29:37;;;;;;;;;;;;;;;;;;5110214;28;19908;-47
2021/01/07 11:32:03;;;;;;;;;;;;;;;;;;5102194;28;20344;-47
2021/01/07 11:34:29;;;;;;;;;;;;;;;;;;5109360;28;19950;-48
2021/01/07 11:36:55;;;;;;;;;;;;;;;;;;5097237;28;20408;-45
2021/01/07 11:39:21;;;;;;;;;;;;;;;;;;5097266;28;20031;-46
2021/01/07 11:41:47;;;;;;;;;;;;;;;;;;5097269;28;20280;-53
2021/01/07 11:44:13;;;;;;;;;;;;;;;;;;5101089;28;20320;-49
2021/01/07 11:46:39;;;;;;;;;;;;;;;;;;5094348;28;19931;-45
2021/01/07 11:49:05;;;;;;;;;;;;;;;;;;5085888;28;19919;-49
2021/01/07 11:51:31;;;;;;;;;;;;;;;;;;5087340;28;20318;-48
2021/01/07 11:53:57;;;;;;;;;;;;;;;;;;5086018;28;19948;-48
2021/01/07 11:56:23;;;;;;;;;;;;;;;;;;5086165;28;19919;-52
2021/01/07 11:58:49;;;;;;;;;;;;;;;;;;5090367;28;20313;-48
2021/01/07 12:01:15;;;;;;;;;;;;;;;;;;5096941;28;19928;-50
2021/01/07 12:03:41;;;;;;;;;;;;;;;;;;5096950;28;20395;-50
2021/01/07 12:06:07;;;;;;;;;;;;;;;;;;5096863;28;19923;-48
2021/01/07 12:08:33;;;;;;;;;;;;;;;;;;5096676;28;19924;-49
2021/01/07 12:10:59;;;;;;;;;;;;;;;;;;5096978;28;20044;-54
2021/01/07 12:13:25;;;;;;;;;;;;;;;;;;5096501;28;20053;-47
2021/01/07 12:15:51;;;;;;;;;;;;;;;;;;5096571;28;19962;-52
2021/01/07 12:18:17;;;;;;;;;;;;;;;;;;5096622;28;20408;-50
2021/01/07 12:20:43;;;;;;;;;;;;;;;;;;5096600;28;19965;-53
2021/01/07 12:23:09;;;;;;;;;;;;;;;;;;5096727;28;19939;-52
2021/01/07 12:25:35;;;;;;;;;;;;;;;;;;5096452;28;19954;-50
2021/01/07 12:28:01;;;;;;;;;;;;;;;;;;5096368;28;19926;-49
2021/01/07 12:30:27;;;;;;;;;;;;;;;;;;5096303;28;20344;-47
2021/01/07 12:32:53;;;;;;;;;;;;;;;;;;5096268;28;19991;-50
2021/01/07 12:35:19;;;;;;;;;;;;;;;;;;5096098;28;19925;-53
2021/01/07 12:37:45;;;;;;;;;;;;;;;;;;5095306;28;19924;-50
2021/01/07 12:40:11;;;;;;;;;;;;;;;;;;5096269;28;19931;-50
2021/01/07 12:42:37;;;;;;;;;;;;;;;;;;5095707;28;20377;-49
2021/01/07 12:45:03;;;;;;;;;;;;;;;;;;5095933;28;19920;-48
2021/01/07 12:47:29;;;;;;;;;;;;;;;;;;5096008;28;20306;-54
2021/01/07 12:49:55;;;;;;;;;;;;;;;;;;5095938;28;19919;-50
2021/01/07 12:52:21;;;;;;;;;;;;;;;;;;5095838;28;19929;-50
2021/01/07 12:54:47;;;;;;;;;;;;;;;;;;5095735;28;19950;-49
2021/01/07 12:57:13;;;;;;;;;;;;;;;;;;5095729;28;19954;-48
2021/01/07 12:59:39;;;;;;;;;;;;;;;;;;5095633;28;19923;-48
2021/01/07 13:02:05;;;;;;;;;;;;;;;;;;5095755;28;20026;-49
2021/01/07 13:04:31;;;;;;;;;;;;;;;;;;5095896;28;19922;-48
2021/01/07 13:06:57;;;;;;;;;;;;;;;;;;5095665;28;19934;-50
2021/01/07 13:09:23;;;;;;;;;;;;;;;;;;5095425;28;19947;-51
2021/01/07 13:11:49;;;;;;;;;;;;;;;;;;5095471;28;19925;-48
2021/01/07 13:14:15;;;;;;;;;;;;;;;;;;5095692;28;20306;-51
2021/01/07 13:16:40;;;;;;;;;;;;;;;;;;5095037;28;20054;-48
2021/01/07 13:19:06;;;;;;;;;;;;;;;;;;5095420;28;19923;-48
2021/01/07 13:21:32;;;;;;;;;;;;;;;;;;5095569;28;19908;-47
2021/01/07 13:23:58;;;;;;;;;;;;;;;;;;5095572;28;20271;-50
2021/01/07 13:26:24;;;;;;;;;;;;;;;;;;5095210;28;19924;-50
2021/01/07 13:28:50;;;;;;;;;;;;;;;;;;5095209;28;19922;-52
2021/01/07 13:31:17;;;;;;;;;;;;;;;;;;5095162;28;19923;-46
2021/01/07 13:33:43;;;;;;;;;;;;;;;;;;5095207;28;19942;-47
2021/01/07 13:36:09;;;;;;;;;;;;;;;;;;5095327;28;19974;-52
2021/01/07 13:38:35;;;;;;;;;;;;;;;;;;5095266;28;20436;-48
2021/01/07 13:41:05;;;;;;;;;;;;;;;;;;5095101;28;19986;-49
2021/01/07 13:43:30;;;;;;;;;;;;;;;;;;5095282;28;20318;-50
2021/01/07 13:45:56;;;;;;;;;;;;;;;;;;5094878;28;19908;-49
2021/01/07 13:48:22;;;;;;;;;;;;;;;;;;5094749;28;19924;-52
2021/01/07 13:50:48;;;;;;;;;;;;;;;;;;5093962;28;19961;-48
2021/01/07 13:53:14;;;;;;;;;;;;;;;;;;5094714;28;19938;-47
2021/01/07 13:55:40;;;;;;;;;;;;;;;;;;5094512;28;19948;-47
2021/01/07 13:58:06;;;;;;;;;;;;;;;;;;5094632;28;19961;-54
2021/01/07 14:00:32;;;;;;;;;;;;;;;;;;5094438;28;19948;-51
2021/01/07 14:02:58;;;;;;;;;;;;;;;;;;5094568;28;20351;-49
2021/01/07 14:05:24;;;;;;;;;;;;;;;;;;5094559;28;19925;-46
2021/01/07 14:07:50;;;;;;;;;;;;;;;;;;5094568;28;20318;-47
2021/01/07 14:10:16;;;;;;;;;;;;;;;;;;5094354;28;19908;-50
2021/01/07 14:12:42;;;;;;;;;;;;;;;;;;5094636;28;19914;-48
2021/01/07 14:15:08;;;;;;;;;;;;;;;;;;5094367;28;19992;-47
2021/01/07 14:17:34;;;;;;;;;;;;;;;;;;5094704;28;19975;-48
2021/01/07 14:20:00;;;;;;;;;;;;;;;;;;5094619;28;19912;-48
2021/01/07 14:22:26;;;;;;;;;;;;;;;;;;5094141;28;20282;-51
2021/01/07 14:24:52;;;;;;;;;;;;;;;;;;5094275;28;19945;-49
2021/01/07 14:27:18;;;;;;;;;;;;;;;;;;5094419;28;19926;-47
2021/01/07 14:29:44;;;;;;;;;;;;;;;;;;5094099;28;19924;-47
2021/01/07 14:32:11;;;;;;;;;;;;;;;;;;5094368;28;19981;-71
2021/01/07 14:34:36;;;;;;;;;;;;;;;;;;5093990;28;20033;-71
2021/01/07 14:37:03;;;;;;;;;;;;;;;;;;5094050;28;20385;-71
2021/01/07 14:39:29;;;;;;;;;;;;;;;;;;5094098;28;19927;-71
2021/01/07 14:41:55;;;;;;;;;;;;;;;;;;5093845;28;19922;-72
2021/01/07 14:44:21;;;;;;;;;;;;;;;;;;5094157;28;20319;-71
2021/01/07 14:46:47;;;;;;;;;;;;;;;;;;5093859;28;19973;-49
2021/01/07 14:49:13;;;;;;;;;;;;;;;;;;5093873;28;19915;-48
2021/01/07 14:51:39;;;;;;;;;;;;;;;;;;5093737;28;19923;-47
2021/01/07 14:54:06;;;;;;;;;;;;;;;;;;5094091;28;19947;-47
2021/01/07 14:56:32;;;;;;;;;;;;;;;;;;5094146;28;19981;-50
2021/01/07 14:58:58;;;;;;;;;;;;;;;;;;5093588;28;20376;-49
2021/01/07 15:01:24;;;;;;;;;;;;;;;;;;5095532;28;19997;-51
2021/01/07 15:03:51;;;;;;;;;;;;;;;;;;5098019;28;20376;-51
2021/01/07 15:06:17;;;;;;;;;;;;;;;;;;5098073;28;19973;-48
2021/01/07 15:08:43;;;;;;;;;;;;;;;;;;5098080;28;20283;-49
2021/01/07 15:11:09;;;;;;;;;;;;;;;;;;5097817;28;19927;-53
2021/01/07 15:13:35;;;;;;;;;;;;;;;;;;5096560;28;19997;-54
2021/01/07 15:16:01;;;;;;;;;;;;;;;;;;5097620;28;20445;-52
2021/01/07 15:18:27;;;;;;;;;;;;;;;;;;5097699;28;19915;-52
2021/01/07 15:20:53;;;;;;;;;;;;;;;;;;5097687;28;19925;-45
2021/01/07 15:23:20;;;;;;;;;;;;;;;;;;5097684;28;19950;-53
2021/01/07 15:25:45;;;;;;;;;;;;;;;;;;5097660;28;20143;-51
2021/01/07 15:28:12;;;;;;;;;;;;;;;;;;5097864;28;19960;-52
2021/01/07 15:30:38;;;;;;;;;;;;;;;;;;5097791;28;19947;-53
2021/01/07 15:33:04;;;;;;;;;;;;;;;;;;5097333;28;20407;-54
2021/01/07 15:35:30;;;;;;;;;;;;;;;;;;5097725;28;19948;-51
2021/01/07 15:37:56;;;;;;;;;;;;;;;;;;5097653;28;19932;-49
2021/01/07 15:40:22;;;;;;;;;;;;;;;;;;5097277;28;20398;-49
2021/01/07 15:42:48;;;;;;;;;;;;;;;;;;5097208;28;19967;-52
2021/01/07 15:45:14;;;;;;;;;;;;;;;;;;5097142;28;19909;-52
2021/01/07 15:47:40;;;;;;;;;;;;;;;;;;5097519;28;19928;-48
2021/01/07 15:50:06;;;;;;;;;;;;;;;;;;5097412;28;20437;-53
2021/01/07 15:52:32;;;;;;;;;;;;;;;;;;5097031;28;19924;-52
2021/01/07 15:54:58;;;;;;;;;;;;;;;;;;5097059;28;19955;-50
2021/01/07 15:57:24;;;;;;;;;;;;;;;;;;5097140;28;19931;-52
2021/01/07 15:59:50;;;;;;;;;;;;;;;;;;5096933;28;20441;-48
2021/01/07 16:02:16;;;;;;;;;;;;;;;;;;5097174;28;19924;-52
2021/01/07 16:04:43;;;;;;;;;;;;;;;;;;5096884;28;20460;-50
2021/01/07 16:07:09;;;;;;;;;;;;;;;;;;5097174;28;20302;-51
2021/01/07 16:09:35;;;;;;;;;;;;;;;;;;5096899;28;19908;-51
2021/01/07 16:12:01;;;;;;;;;;;;;;;;;;5096288;28;19926;-50
2021/01/07 16:14:27;;;;;;;;;;;;;;;;;;5096186;28;20051;-53
2021/01/07 16:16:52;;;;;;;;;;;;;;;;;;5096378;28;20400;-48
2021/01/07 16:19:18;;;;;;;;;;;;;;;;;;5096889;28;19959;-51
2021/01/07 16:21:44;;;;;;;;;;;;;;;;;;5096517;28;20060;-51
2021/01/07 16:24:10;;;;;;;;;;;;;;;;;;5096423;28;19963;-52
2021/01/07 16:26:36;;;;;;;;;;;;;;;;;;5096505;28;19925;-50
2021/01/07 16:29:04;;;;;;;;;;;;;;;;;;5096341;28;20008;-51
2021/01/07 16:31:30;;;;;;;;;;;;;;;;;;5081457;28;20038;-52
2021/01/07 16:33:56;;;;;;;;;;;;;;;;;;5072872;28;20044;-54
2021/01/07 16:36:22;;;;;;;;;;;;;;;;;;5074159;28;19931;-52